sensor_id;sensor_type;location;lat;lon;timestamp;temperature;humidity
24462;DHT22;12631;50.860;5.714;2022-11-21T00:01:34;7.80;99.90
24462;DHT22;12631;50.860;5.714;2022-11-21T00:04:02;7.70;99.90
24462;DHT22;12631;50.860;5.714;2022-11-21T00:06:29;7.70;99.90
24462;DHT22;12631;50.860;5.714;2022-11-21T00:08:56;7.60;99.90
24462;DHT22;12631;50.860;5.714;2022-11-21T00:11:24;7.50;99.90
24462;DHT22;12631;50.860;5.714;2022-11-21T00:13:51;7.60;99.90
24462;DHT22;12631;50.860;5.714;2022-11-21T00:16:18;7.50;99.90
24462;DHT22;12631;50.860;5.714;2022-11-21T00:18:45;7.40;99.90
24462;DHT22;12631;50.860;5.714;2022-11-21T00:21:14;7.40;99.90
24462;DHT22;12631;50.860;5.714;2022-11-21T00:23:41;7.40;99.90
24462;DHT22;12631;50.860;5.714;2022-11-21T00:26:10;7.40;99.90
24462;DHT22;12631;50.860;5.714;2022-11-21T00:28:39;7.40;99.90
24462;DHT22;12631;50.860;5.714;2022-11-21T00:31:06;7.50;99.90
24462;DHT22;12631;50.860;5.714;2022-11-21T00:33:34;7.50;99.90
24462;DHT22;12631;50.860;5.714;2022-11-21T00:36:05;7.50;99.90
24462;DHT22;12631;50.860;5.714;2022-11-21T00:38:33;7.40;99.90
24462;DHT22;12631;50.860;5.714;2022-11-21T00:41:00;7.30;99.90
24462;DHT22;12631;50.860;5.714;2022-11-21T00:43:27;7.20;99.90
24462;DHT22;12631;50.860;5.714;2022-11-21T00:45:56;7.20;99.90
24462;DHT22;12631;50.860;5.714;2022-11-21T00:48:24;7.10;99.90
24462;DHT22;12631;50.860;5.714;2022-11-21T00:50:51;7.10;99.90
24462;DHT22;12631;50.860;5.714;2022-11-21T00:53:18;7.00;99.90
24462;DHT22;12631;50.860;5.714;2022-11-21T00:55:45;6.90;99.90
24462;DHT22;12631;50.860;5.714;2022-11-21T00:58:12;6.80;99.90
24462;DHT22;12631;50.860;5.714;2022-11-21T01:00:39;6.70;99.90
24462;DHT22;12631;50.860;5.714;2022-11-21T01:03:08;6.70;99.90
24462;DHT22;12631;50.860;5.714;2022-11-21T01:05:35;6.60;99.90
24462;DHT22;12631;50.860;5.714;2022-11-21T01:08:02;6.60;99.90
24462;DHT22;12631;50.860;5.714;2022-11-21T01:10:30;6.70;99.90
24462;DHT22;12631;50.860;5.714;2022-11-21T01:12:57;6.70;99.90
24462;DHT22;12631;50.860;5.714;2022-11-21T01:15:24;6.80;99.90
24462;DHT22;12631;50.860;5.714;2022-11-21T01:17:52;6.80;99.90
24462;DHT22;12631;50.860;5.714;2022-11-21T01:20:20;6.80;99.90
24462;DHT22;12631;50.860;5.714;2022-11-21T01:22:47;6.80;99.90
24462;DHT22;12631;50.860;5.714;2022-11-21T01:25:15;6.80;99.90
24462;DHT22;12631;50.860;5.714;2022-11-21T01:27:42;6.80;99.90
24462;DHT22;12631;50.860;5.714;2022-11-21T01:30:10;6.70;99.90
24462;DHT22;12631;50.860;5.714;2022-11-21T01:33:13;6.70;99.90
24462;DHT22;12631;50.860;5.714;2022-11-21T01:35:40;6.70;99.90
24462;DHT22;12631;50.860;5.714;2022-11-21T01:38:07;6.60;99.90
24462;DHT22;12631;50.860;5.714;2022-11-21T01:40:37;6.70;99.90
24462;DHT22;12631;50.860;5.714;2022-11-21T01:43:11;6.70;99.90
24462;DHT22;12631;50.860;5.714;2022-11-21T01:45:54;6.60;99.90
24462;DHT22;12631;50.860;5.714;2022-11-21T01:48:27;6.60;99.90
24462;DHT22;12631;50.860;5.714;2022-11-21T01:50:58;6.60;99.90
24462;DHT22;12631;50.860;5.714;2022-11-21T01:53:26;6.60;99.90
24462;DHT22;12631;50.860;5.714;2022-11-21T01:55:53;6.60;99.90
24462;DHT22;12631;50.860;5.714;2022-11-21T01:58:21;6.50;99.90
24462;DHT22;12631;50.860;5.714;2022-11-21T02:00:50;6.50;99.90
24462;DHT22;12631;50.860;5.714;2022-11-21T02:03:20;6.50;99.90
24462;DHT22;12631;50.860;5.714;2022-11-21T02:05:51;6.50;99.90
24462;DHT22;12631;50.860;5.714;2022-11-21T02:08:20;6.50;99.90
24462;DHT22;12631;50.860;5.714;2022-11-21T02:10:56;6.60;99.90
24462;DHT22;12631;50.860;5.714;2022-11-21T02:13:26;6.50;99.90
24462;DHT22;12631;50.860;5.714;2022-11-21T02:15:54;6.50;99.90
24462;DHT22;12631;50.860;5.714;2022-11-21T02:18:21;6.50;99.90
24462;DHT22;12631;50.860;5.714;2022-11-21T02:20:55;6.60;99.90
24462;DHT22;12631;50.860;5.714;2022-11-21T02:23:30;6.70;99.90
24462;DHT22;12631;50.860;5.714;2022-11-21T02:26:03;6.80;99.90
24462;DHT22;12631;50.860;5.714;2022-11-21T02:28:30;6.90;99.90
24462;DHT22;12631;50.860;5.714;2022-11-21T02:30:57;7.00;99.90
24462;DHT22;12631;50.860;5.714;2022-11-21T02:33:24;7.00;99.90
24462;DHT22;12631;50.860;5.714;2022-11-21T02:35:56;7.00;99.90
24462;DHT22;12631;50.860;5.714;2022-11-21T02:38:27;7.10;99.90
24462;DHT22;12631;50.860;5.714;2022-11-21T02:41:06;7.20;99.90
24462;DHT22;12631;50.860;5.714;2022-11-21T02:43:38;7.20;99.90
24462;DHT22;12631;50.860;5.714;2022-11-21T02:46:07;7.10;99.90
24462;DHT22;12631;50.860;5.714;2022-11-21T02:48:35;7.10;99.90
24462;DHT22;12631;50.860;5.714;2022-11-21T02:51:03;7.10;99.90
24462;DHT22;12631;50.860;5.714;2022-11-21T02:53:30;7.10;99.90
24462;DHT22;12631;50.860;5.714;2022-11-21T02:55:57;7.20;99.90
24462;DHT22;12631;50.860;5.714;2022-11-21T02:58:26;7.20;99.90
24462;DHT22;12631;50.860;5.714;2022-11-21T03:00:53;7.30;99.90
24462;DHT22;12631;50.860;5.714;2022-11-21T03:03:20;7.30;99.90
24462;DHT22;12631;50.860;5.714;2022-11-21T03:05:48;7.20;99.90
24462;DHT22;12631;50.860;5.714;2022-11-21T03:08:15;7.20;99.90
24462;DHT22;12631;50.860;5.714;2022-11-21T03:10:42;7.10;99.90
24462;DHT22;12631;50.860;5.714;2022-11-21T03:13:09;7.00;99.90
24462;DHT22;12631;50.860;5.714;2022-11-21T03:15:37;7.00;99.90
24462;DHT22;12631;50.860;5.714;2022-11-21T03:18:04;7.10;99.90
24462;DHT22;12631;50.860;5.714;2022-11-21T03:20:33;7.10;99.90
24462;DHT22;12631;50.860;5.714;2022-11-21T03:23:01;7.10;99.90
24462;DHT22;12631;50.860;5.714;2022-11-21T03:25:28;7.00;99.90
24462;DHT22;12631;50.860;5.714;2022-11-21T03:27:56;7.00;99.90
24462;DHT22;12631;50.860;5.714;2022-11-21T03:30:25;7.10;99.90
24462;DHT22;12631;50.860;5.714;2022-11-21T03:32:56;7.10;99.90
24462;DHT22;12631;50.860;5.714;2022-11-21T03:35:23;7.10;99.90
24462;DHT22;12631;50.860;5.714;2022-11-21T03:37:51;7.10;99.90
24462;DHT22;12631;50.860;5.714;2022-11-21T03:40:18;7.00;99.90
24462;DHT22;12631;50.860;5.714;2022-11-21T03:42:45;7.00;99.90
24462;DHT22;12631;50.860;5.714;2022-11-21T03:45:12;6.90;99.90
24462;DHT22;12631;50.860;5.714;2022-11-21T03:47:39;6.90;99.90
24462;DHT22;12631;50.860;5.714;2022-11-21T03:50:08;6.90;99.90
24462;DHT22;12631;50.860;5.714;2022-11-21T03:52:36;6.90;99.90
24462;DHT22;12631;50.860;5.714;2022-11-21T03:55:04;6.90;99.90
24462;DHT22;12631;50.860;5.714;2022-11-21T03:57:31;6.90;99.90
24462;DHT22;12631;50.860;5.714;2022-11-21T03:59:58;6.90;99.90
24462;DHT22;12631;50.860;5.714;2022-11-21T04:02:25;6.90;99.90
24462;DHT22;12631;50.860;5.714;2022-11-21T04:04:53;6.90;99.90
24462;DHT22;12631;50.860;5.714;2022-11-21T04:07:21;7.00;99.90
24462;DHT22;12631;50.860;5.714;2022-11-21T04:09:48;7.00;99.90
24462;DHT22;12631;50.860;5.714;2022-11-21T04:12:15;7.00;99.90
24462;DHT22;12631;50.860;5.714;2022-11-21T04:14:42;7.00;99.90
24462;DHT22;12631;50.860;5.714;2022-11-21T04:17:09;7.00;99.90
24462;DHT22;12631;50.860;5.714;2022-11-21T04:19:37;7.00;99.90
24462;DHT22;12631;50.860;5.714;2022-11-21T04:22:04;7.00;99.90
24462;DHT22;12631;50.860;5.714;2022-11-21T04:24:32;7.00;99.90
24462;DHT22;12631;50.860;5.714;2022-11-21T04:26:59;7.00;99.90
24462;DHT22;12631;50.860;5.714;2022-11-21T04:29:26;7.10;99.90
24462;DHT22;12631;50.860;5.714;2022-11-21T04:31:53;7.10;99.90
24462;DHT22;12631;50.860;5.714;2022-11-21T04:34:21;7.00;99.90
24462;DHT22;12631;50.860;5.714;2022-11-21T04:36:48;7.00;99.90
24462;DHT22;12631;50.860;5.714;2022-11-21T04:39:15;7.00;99.90
24462;DHT22;12631;50.860;5.714;2022-11-21T04:41:43;7.00;99.90
24462;DHT22;12631;50.860;5.714;2022-11-21T04:44:10;7.00;99.90
24462;DHT22;12631;50.860;5.714;2022-11-21T04:46:38;7.00;99.90
24462;DHT22;12631;50.860;5.714;2022-11-21T04:49:05;7.00;99.90
24462;DHT22;12631;50.860;5.714;2022-11-21T04:51:32;7.00;99.90
24462;DHT22;12631;50.860;5.714;2022-11-21T04:53:59;6.90;99.90
24462;DHT22;12631;50.860;5.714;2022-11-21T04:56:26;6.90;99.90
24462;DHT22;12631;50.860;5.714;2022-11-21T04:58:54;6.90;99.90
24462;DHT22;12631;50.860;5.714;2022-11-21T05:01:22;6.90;99.90
24462;DHT22;12631;50.860;5.714;2022-11-21T05:03:50;6.90;99.90
24462;DHT22;12631;50.860;5.714;2022-11-21T05:06:18;6.90;99.90
24462;DHT22;12631;50.860;5.714;2022-11-21T05:08:45;6.90;99.90
24462;DHT22;12631;50.860;5.714;2022-11-21T05:11:12;7.00;99.90
24462;DHT22;12631;50.860;5.714;2022-11-21T05:13:58;6.90;99.90
24462;DHT22;12631;50.860;5.714;2022-11-21T05:16:25;6.90;99.90
24462;DHT22;12631;50.860;5.714;2022-11-21T05:18:52;6.80;99.90
24462;DHT22;12631;50.860;5.714;2022-11-21T05:21:19;6.80;99.90
24462;DHT22;12631;50.860;5.714;2022-11-21T05:23:47;6.80;99.90
24462;DHT22;12631;50.860;5.714;2022-11-21T05:26:14;6.80;99.90
24462;DHT22;12631;50.860;5.714;2022-11-21T05:28:41;6.70;99.90
24462;DHT22;12631;50.860;5.714;2022-11-21T05:31:09;6.80;99.90
24462;DHT22;12631;50.860;5.714;2022-11-21T05:33:36;6.70;99.90
24462;DHT22;12631;50.860;5.714;2022-11-21T05:36:04;6.70;99.90
24462;DHT22;12631;50.860;5.714;2022-11-21T05:38:31;6.80;99.90
24462;DHT22;12631;50.860;5.714;2022-11-21T05:40:58;6.70;99.90
24462;DHT22;12631;50.860;5.714;2022-11-21T05:43:25;6.70;99.90
24462;DHT22;12631;50.860;5.714;2022-11-21T05:46:11;6.70;99.90
24462;DHT22;12631;50.860;5.714;2022-11-21T05:48:39;6.70;99.90
24462;DHT22;12631;50.860;5.714;2022-11-21T05:51:06;6.60;99.90
24462;DHT22;12631;50.860;5.714;2022-11-21T05:53:34;6.50;99.90
24462;DHT22;12631;50.860;5.714;2022-11-21T05:56:03;6.50;99.90
24462;DHT22;12631;50.860;5.714;2022-11-21T05:58:31;6.50;99.90
24462;DHT22;12631;50.860;5.714;2022-11-21T06:00:59;6.40;99.90
24462;DHT22;12631;50.860;5.714;2022-11-21T06:03:29;6.30;99.90
24462;DHT22;12631;50.860;5.714;2022-11-21T06:06:04;6.40;99.90
24462;DHT22;12631;50.860;5.714;2022-11-21T06:08:33;6.30;99.90
24462;DHT22;12631;50.860;5.714;2022-11-21T06:11:01;6.40;99.90
24462;DHT22;12631;50.860;5.714;2022-11-21T06:13:29;6.40;99.90
24462;DHT22;12631;50.860;5.714;2022-11-21T06:16:00;6.40;99.90
24462;DHT22;12631;50.860;5.714;2022-11-21T06:18:31;6.40;99.90
24462;DHT22;12631;50.860;5.714;2022-11-21T06:21:02;6.40;99.90
24462;DHT22;12631;50.860;5.714;2022-11-21T06:23:29;6.50;99.90
24462;DHT22;12631;50.860;5.714;2022-11-21T06:25:57;6.40;99.90
24462;DHT22;12631;50.860;5.714;2022-11-21T06:28:25;6.40;99.90
24462;DHT22;12631;50.860;5.714;2022-11-21T06:30:53;6.40;99.90
24462;DHT22;12631;50.860;5.714;2022-11-21T06:33:23;6.40;99.90
24462;DHT22;12631;50.860;5.714;2022-11-21T06:35:51;6.30;99.90
24462;DHT22;12631;50.860;5.714;2022-11-21T06:38:18;6.30;99.90
24462;DHT22;12631;50.860;5.714;2022-11-21T06:40:45;6.30;99.90
24462;DHT22;12631;50.860;5.714;2022-11-21T06:43:13;6.30;99.90
24462;DHT22;12631;50.860;5.714;2022-11-21T06:45:40;6.30;99.90
24462;DHT22;12631;50.860;5.714;2022-11-21T06:48:07;6.30;99.90
24462;DHT22;12631;50.860;5.714;2022-11-21T06:50:34;6.20;99.90
24462;DHT22;12631;50.860;5.714;2022-11-21T06:53:04;6.30;99.90
24462;DHT22;12631;50.860;5.714;2022-11-21T06:55:32;6.30;99.90
24462;DHT22;12631;50.860;5.714;2022-11-21T06:57:59;6.30;99.90
24462;DHT22;12631;50.860;5.714;2022-11-21T07:00:27;6.40;99.90
24462;DHT22;12631;50.860;5.714;2022-11-21T07:02:58;6.40;99.90
24462;DHT22;12631;50.860;5.714;2022-11-21T07:05:26;6.40;99.90
24462;DHT22;12631;50.860;5.714;2022-11-21T07:07:57;6.50;99.90
24462;DHT22;12631;50.860;5.714;2022-11-21T07:10:26;6.50;99.90
24462;DHT22;12631;50.860;5.714;2022-11-21T07:12:56;6.50;99.90
24462;DHT22;12631;50.860;5.714;2022-11-21T07:15:40;6.50;99.90
24462;DHT22;12631;50.860;5.714;2022-11-21T07:18:08;6.50;99.90
24462;DHT22;12631;50.860;5.714;2022-11-21T07:20:35;6.50;99.90
24462;DHT22;12631;50.860;5.714;2022-11-21T07:23:02;6.50;99.90
24462;DHT22;12631;50.860;5.714;2022-11-21T07:25:31;6.50;99.90
24462;DHT22;12631;50.860;5.714;2022-11-21T07:27:58;6.50;99.90
24462;DHT22;12631;50.860;5.714;2022-11-21T07:30:26;6.50;99.90
24462;DHT22;12631;50.860;5.714;2022-11-21T07:32:54;6.50;99.90
24462;DHT22;12631;50.860;5.714;2022-11-21T07:35:22;6.60;99.90
24462;DHT22;12631;50.860;5.714;2022-11-21T07:37:49;6.60;99.90
24462;DHT22;12631;50.860;5.714;2022-11-21T07:40:17;6.50;99.90
24462;DHT22;12631;50.860;5.714;2022-11-21T07:42:46;6.60;99.90
24462;DHT22;12631;50.860;5.714;2022-11-21T07:45:14;6.60;99.90
24462;DHT22;12631;50.860;5.714;2022-11-21T07:47:41;6.60;99.90
24462;DHT22;12631;50.860;5.714;2022-11-21T07:50:10;6.60;99.90
24462;DHT22;12631;50.860;5.714;2022-11-21T07:52:38;6.60;99.90
24462;DHT22;12631;50.860;5.714;2022-11-21T07:55:06;6.60;99.90
24462;DHT22;12631;50.860;5.714;2022-11-21T07:57:33;6.60;99.90
24462;DHT22;12631;50.860;5.714;2022-11-21T08:00:03;6.60;99.90
24462;DHT22;12631;50.860;5.714;2022-11-21T08:02:30;6.60;99.90
24462;DHT22;12631;50.860;5.714;2022-11-21T08:04:57;6.50;99.90
24462;DHT22;12631;50.860;5.714;2022-11-21T08:07:24;6.50;99.90
24462;DHT22;12631;50.860;5.714;2022-11-21T08:09:52;6.50;99.90
24462;DHT22;12631;50.860;5.714;2022-11-21T08:12:19;6.50;99.90
24462;DHT22;12631;50.860;5.714;2022-11-21T08:14:58;6.50;99.90
24462;DHT22;12631;50.860;5.714;2022-11-21T08:17:27;6.40;99.90
24462;DHT22;12631;50.860;5.714;2022-11-21T08:19:54;6.50;99.90
24462;DHT22;12631;50.860;5.714;2022-11-21T08:22:23;6.60;99.90
24462;DHT22;12631;50.860;5.714;2022-11-21T08:24:51;6.70;99.90
24462;DHT22;12631;50.860;5.714;2022-11-21T08:27:19;7.30;99.90
24462;DHT22;12631;50.860;5.714;2022-11-21T08:29:47;8.30;99.90
24462;DHT22;12631;50.860;5.714;2022-11-21T08:32:14;8.30;99.90
24462;DHT22;12631;50.860;5.714;2022-11-21T08:34:43;8.70;99.90
24462;DHT22;12631;50.860;5.714;2022-11-21T08:37:10;9.00;99.90
24462;DHT22;12631;50.860;5.714;2022-11-21T08:39:37;9.40;99.90
24462;DHT22;12631;50.860;5.714;2022-11-21T08:42:05;9.80;99.90
24462;DHT22;12631;50.860;5.714;2022-11-21T08:44:33;9.70;99.90
24462;DHT22;12631;50.860;5.714;2022-11-21T08:47:01;9.30;99.90
24462;DHT22;12631;50.860;5.714;2022-11-21T08:49:29;9.30;99.90
24462;DHT22;12631;50.860;5.714;2022-11-21T08:51:58;9.40;99.90
24462;DHT22;12631;50.860;5.714;2022-11-21T08:54:25;10.20;66.80
24462;DHT22;12631;50.860;5.714;2022-11-21T08:56:52;10.10;1.00
24462;DHT22;12631;50.860;5.714;2022-11-21T08:59:20;10.00;1.00
24462;DHT22;12631;50.860;5.714;2022-11-21T09:01:47;9.90;1.00
24462;DHT22;12631;50.860;5.714;2022-11-21T09:04:14;10.10;1.00
24462;DHT22;12631;50.860;5.714;2022-11-21T09:06:41;10.10;1.00
24462;DHT22;12631;50.860;5.714;2022-11-21T09:09:10;10.30;1.00
24462;DHT22;12631;50.860;5.714;2022-11-21T09:11:37;10.60;1.00
24462;DHT22;12631;50.860;5.714;2022-11-21T09:14:05;10.70;1.00
24462;DHT22;12631;50.860;5.714;2022-11-21T09:16:49;10.60;1.00
24462;DHT22;12631;50.860;5.714;2022-11-21T09:19:34;10.50;99.90
24462;DHT22;12631;50.860;5.714;2022-11-21T09:22:01;10.70;99.90
24462;DHT22;12631;50.860;5.714;2022-11-21T09:24:30;11.10;99.90
24462;DHT22;12631;50.860;5.714;2022-11-21T09:26:58;10.90;1.00
24462;DHT22;12631;50.860;5.714;2022-11-21T09:29:25;11.10;1.00
24462;DHT22;12631;50.860;5.714;2022-11-21T09:31:52;10.80;1.00
24462;DHT22;12631;50.860;5.714;2022-11-21T09:34:20;10.60;1.00
24462;DHT22;12631;50.860;5.714;2022-11-21T09:36:47;10.50;1.00
24462;DHT22;12631;50.860;5.714;2022-11-21T09:39:14;10.70;1.00
24462;DHT22;12631;50.860;5.714;2022-11-21T09:41:52;11.00;99.90
24462;DHT22;12631;50.860;5.714;2022-11-21T09:44:47;10.60;99.90
24462;DHT22;12631;50.860;5.714;2022-11-21T09:47:23;9.60;1.00
24462;DHT22;12631;50.860;5.714;2022-11-21T09:49:56;9.50;1.00
24462;DHT22;12631;50.860;5.714;2022-11-21T09:52:27;9.50;8.10
24462;DHT22;12631;50.860;5.714;2022-11-21T09:54:59;9.40;99.90
24462;DHT22;12631;50.860;5.714;2022-11-21T09:57:30;9.00;99.90
24462;DHT22;12631;50.860;5.714;2022-11-21T10:00:02;8.90;1.00
24462;DHT22;12631;50.860;5.714;2022-11-21T10:02:30;9.30;1.00
24462;DHT22;12631;50.860;5.714;2022-11-21T10:04:57;10.20;99.90
24462;DHT22;12631;50.860;5.714;2022-11-21T10:07:28;10.60;1.00
24462;DHT22;12631;50.860;5.714;2022-11-21T10:10:16;10.50;99.90
24462;DHT22;12631;50.860;5.714;2022-11-21T10:12:58;10.50;99.90
24462;DHT22;12631;50.860;5.714;2022-11-21T10:15:39;9.80;1.00
24462;DHT22;12631;50.860;5.714;2022-11-21T10:18:30;9.30;99.90
24462;DHT22;12631;50.860;5.714;2022-11-21T10:21:10;8.90;99.90
24462;DHT22;12631;50.860;5.714;2022-11-21T10:23:53;8.50;75.70
24462;DHT22;12631;50.860;5.714;2022-11-21T10:26:33;8.50;1.00
24462;DHT22;12631;50.860;5.714;2022-11-21T10:29:09;9.20;99.90
24462;DHT22;12631;50.860;5.714;2022-11-21T10:31:40;10.00;1.00
24462;DHT22;12631;50.860;5.714;2022-11-21T10:34:11;9.60;1.00
24462;DHT22;12631;50.860;5.714;2022-11-21T10:36:42;9.70;1.00
24462;DHT22;12631;50.860;5.714;2022-11-21T10:39:13;10.30;99.90
24462;DHT22;12631;50.860;5.714;2022-11-21T10:41:49;9.70;55.20
24462;DHT22;12631;50.860;5.714;2022-11-21T10:44:22;10.00;99.90
24462;DHT22;12631;50.860;5.714;2022-11-21T10:47:13;10.30;1.00
24462;DHT22;12631;50.860;5.714;2022-11-21T10:49:41;9.50;1.00
24462;DHT22;12631;50.860;5.714;2022-11-21T10:52:12;9.10;6.10
24462;DHT22;12631;50.860;5.714;2022-11-21T10:55:04;9.20;99.90
24462;DHT22;12631;50.860;5.714;2022-11-21T10:57:37;9.60;99.90
24462;DHT22;12631;50.860;5.714;2022-11-21T11:00:17;10.00;1.00
24462;DHT22;12631;50.860;5.714;2022-11-21T11:03:03;10.30;1.00
24462;DHT22;12631;50.860;5.714;2022-11-21T11:05:32;9.60;1.00
24462;DHT22;12631;50.860;5.714;2022-11-21T11:08:02;9.20;99.90
24462;DHT22;12631;50.860;5.714;2022-11-21T11:10:31;9.40;99.90
24462;DHT22;12631;50.860;5.714;2022-11-21T11:12:59;9.80;99.90
24462;DHT22;12631;50.860;5.714;2022-11-21T11:16:00;10.20;1.00
24462;DHT22;12631;50.860;5.714;2022-11-21T11:18:29;10.00;1.00
24462;DHT22;12631;50.860;5.714;2022-11-21T11:21:15;10.00;1.00
24462;DHT22;12631;50.860;5.714;2022-11-21T11:23:42;10.10;1.00
24462;DHT22;12631;50.860;5.714;2022-11-21T11:26:31;9.70;1.00
24462;DHT22;12631;50.860;5.714;2022-11-21T11:29:08;9.70;71.20
24462;DHT22;12631;50.860;5.714;2022-11-21T11:31:45;9.40;99.90
24462;DHT22;12631;50.860;5.714;2022-11-21T11:34:16;9.60;1.00
24462;DHT22;12631;50.860;5.714;2022-11-21T11:36:54;9.70;99.90
24462;DHT22;12631;50.860;5.714;2022-11-21T11:39:35;9.80;1.20
24462;DHT22;12631;50.860;5.714;2022-11-21T11:45:48;10.00;1.00
24462;DHT22;12631;50.860;5.714;2022-11-21T11:48:36;9.80;1.00
24462;DHT22;12631;50.860;5.714;2022-11-21T11:51:14;9.30;99.90
24462;DHT22;12631;50.860;5.714;2022-11-21T11:53:48;9.20;99.90
24462;DHT22;12631;50.860;5.714;2022-11-21T11:56:20;9.30;1.00
24462;DHT22;12631;50.860;5.714;2022-11-21T11:58:52;9.10;99.90
24462;DHT22;12631;50.860;5.714;2022-11-21T12:01:28;9.20;99.90
24462;DHT22;12631;50.860;5.714;2022-11-21T12:03:58;9.20;99.90
24462;DHT22;12631;50.860;5.714;2022-11-21T12:06:31;9.30;99.90
24462;DHT22;12631;50.860;5.714;2022-11-21T12:09:03;9.30;99.90
24462;DHT22;12631;50.860;5.714;2022-11-21T12:11:39;9.30;29.50
24462;DHT22;12631;50.860;5.714;2022-11-21T12:14:53;9.30;1.00
24462;DHT22;12631;50.860;5.714;2022-11-21T12:17:42;9.30;1.00
24462;DHT22;12631;50.860;5.714;2022-11-21T12:20:18;9.30;82.70
24462;DHT22;12631;50.860;5.714;2022-11-21T12:22:49;9.30;1.00
24462;DHT22;12631;50.860;5.714;2022-11-21T12:25:20;9.30;1.00
24462;DHT22;12631;50.860;5.714;2022-11-21T12:27:52;9.30;1.00
24462;DHT22;12631;50.860;5.714;2022-11-21T12:30:38;9.20;99.90
24462;DHT22;12631;50.860;5.714;2022-11-21T12:33:18;9.30;99.90
24462;DHT22;12631;50.860;5.714;2022-11-21T12:36:13;9.30;99.90
24462;DHT22;12631;50.860;5.714;2022-11-21T12:39:08;9.30;99.90
24462;DHT22;12631;50.860;5.714;2022-11-21T12:41:44;9.40;99.90
24462;DHT22;12631;50.860;5.714;2022-11-21T12:44:44;9.40;92.10
24462;DHT22;12631;50.860;5.714;2022-11-21T12:47:28;9.50;16.20
24462;DHT22;12631;50.860;5.714;2022-11-21T12:50:21;9.50;1.00
24462;DHT22;12631;50.860;5.714;2022-11-21T12:53:15;9.50;1.00
24462;DHT22;12631;50.860;5.714;2022-11-21T12:56:06;9.50;1.00
24462;DHT22;12631;50.860;5.714;2022-11-21T12:58:39;9.50;26.50
24462;DHT22;12631;50.860;5.714;2022-11-21T13:01:18;9.60;1.00
24462;DHT22;12631;50.860;5.714;2022-11-21T13:03:57;9.70;99.90
24462;DHT22;12631;50.860;5.714;2022-11-21T13:06:26;9.70;99.90
24462;DHT22;12631;50.860;5.714;2022-11-21T13:08:58;9.60;99.90
24462;DHT22;12631;50.860;5.714;2022-11-21T13:11:38;9.50;99.90
24462;DHT22;12631;50.860;5.714;2022-11-21T13:14:33;9.70;1.00
24462;DHT22;12631;50.860;5.714;2022-11-21T13:17:09;9.80;1.00
24462;DHT22;12631;50.860;5.714;2022-11-21T13:19:44;9.80;1.00
24462;DHT22;12631;50.860;5.714;2022-11-21T13:22:50;9.70;1.00
24462;DHT22;12631;50.860;5.714;2022-11-21T13:25:41;9.70;1.00
24462;DHT22;12631;50.860;5.714;2022-11-21T13:28:37;9.80;1.00
24462;DHT22;12631;50.860;5.714;2022-11-21T13:31:26;10.00;1.00
24462;DHT22;12631;50.860;5.714;2022-11-21T13:33:54;10.00;1.00
24462;DHT22;12631;50.860;5.714;2022-11-21T13:36:39;9.90;1.00
24462;DHT22;12631;50.860;5.714;2022-11-21T13:39:25;9.90;1.00
24462;DHT22;12631;50.860;5.714;2022-11-21T13:42:11;9.90;1.00
24462;DHT22;12631;50.860;5.714;2022-11-21T13:44:57;9.80;1.00
24462;DHT22;12631;50.860;5.714;2022-11-21T13:48:02;9.80;99.90
24462;DHT22;12631;50.860;5.714;2022-11-21T13:53:34;9.90;99.90
24462;DHT22;12631;50.860;5.714;2022-11-21T13:56:08;9.70;99.90
24462;DHT22;12631;50.860;5.714;2022-11-21T13:58:50;9.70;99.90
24462;DHT22;12631;50.860;5.714;2022-11-21T14:01:43;9.80;1.00
24462;DHT22;12631;50.860;5.714;2022-11-21T14:07:25;9.60;1.00
24462;DHT22;12631;50.860;5.714;2022-11-21T14:09:54;9.60;99.90
24462;DHT22;12631;50.860;5.714;2022-11-21T14:12:27;9.70;99.90
24462;DHT22;12631;50.860;5.714;2022-11-21T14:15:14;9.60;1.00
24462;DHT22;12631;50.860;5.714;2022-11-21T14:17:45;9.60;1.00
24462;DHT22;12631;50.860;5.714;2022-11-21T14:20:17;9.60;99.90
24462;DHT22;12631;50.860;5.714;2022-11-21T14:22:55;9.60;99.90
24462;DHT22;12631;50.860;5.714;2022-11-21T14:25:28;9.60;99.90
24462;DHT22;12631;50.860;5.714;2022-11-21T14:27:58;9.50;99.90
24462;DHT22;12631;50.860;5.714;2022-11-21T14:30:32;9.50;99.90
24462;DHT22;12631;50.860;5.714;2022-11-21T14:33:28;9.50;99.90
24462;DHT22;12631;50.860;5.714;2022-11-21T14:36:07;9.50;1.00
24462;DHT22;12631;50.860;5.714;2022-11-21T14:38:41;9.40;1.00
24462;DHT22;12631;50.860;5.714;2022-11-21T14:41:29;9.40;1.00
24462;DHT22;12631;50.860;5.714;2022-11-21T14:44:05;9.40;5.20
24462;DHT22;12631;50.860;5.714;2022-11-21T14:46:35;9.40;16.30
24462;DHT22;12631;50.860;5.714;2022-11-21T14:49:23;9.30;99.90
24462;DHT22;12631;50.860;5.714;2022-11-21T14:51:56;9.30;99.90
24462;DHT22;12631;50.860;5.714;2022-11-21T14:54:26;9.30;99.90
24462;DHT22;12631;50.860;5.714;2022-11-21T14:56:57;9.30;99.90
24462;DHT22;12631;50.860;5.714;2022-11-21T14:59:27;9.30;99.90
24462;DHT22;12631;50.860;5.714;2022-11-21T15:01:59;9.30;99.90
24462;DHT22;12631;50.860;5.714;2022-11-21T15:04:32;9.20;99.90
24462;DHT22;12631;50.860;5.714;2022-11-21T15:06:59;9.20;99.90
24462;DHT22;12631;50.860;5.714;2022-11-21T15:09:27;9.20;99.90
24462;DHT22;12631;50.860;5.714;2022-11-21T15:12:00;9.20;99.90
24462;DHT22;12631;50.860;5.714;2022-11-21T15:14:33;9.20;99.90
24462;DHT22;12631;50.860;5.714;2022-11-21T15:17:07;9.20;99.90
24462;DHT22;12631;50.860;5.714;2022-11-21T15:19:37;9.20;99.90
24462;DHT22;12631;50.860;5.714;2022-11-21T15:22:04;9.20;99.90
24462;DHT22;12631;50.860;5.714;2022-11-21T15:24:36;9.20;99.90
24462;DHT22;12631;50.860;5.714;2022-11-21T15:27:29;9.20;99.90
24462;DHT22;12631;50.860;5.714;2022-11-21T15:30:20;9.10;99.90
24462;DHT22;12631;50.860;5.714;2022-11-21T15:33:09;9.20;99.90
24462;DHT22;12631;50.860;5.714;2022-11-21T15:36:09;9.20;99.90
24462;DHT22;12631;50.860;5.714;2022-11-21T15:38:40;9.20;99.90
24462;DHT22;12631;50.860;5.714;2022-11-21T15:41:24;9.30;99.90
24462;DHT22;12631;50.860;5.714;2022-11-21T15:43:53;9.20;99.90
24462;DHT22;12631;50.860;5.714;2022-11-21T15:46:22;9.20;99.90
24462;DHT22;12631;50.860;5.714;2022-11-21T15:48:52;9.10;99.90
24462;DHT22;12631;50.860;5.714;2022-11-21T15:51:21;9.10;1.00
24462;DHT22;12631;50.860;5.714;2022-11-21T15:53:50;9.00;1.00
24462;DHT22;12631;50.860;5.714;2022-11-21T15:56:19;8.90;1.00
24462;DHT22;12631;50.860;5.714;2022-11-21T15:58:48;9.00;1.00
24462;DHT22;12631;50.860;5.714;2022-11-21T16:01:17;8.90;1.00
24462;DHT22;12631;50.860;5.714;2022-11-21T16:03:45;8.80;1.00
24462;DHT22;12631;50.860;5.714;2022-11-21T16:06:15;8.90;1.00
24462;DHT22;12631;50.860;5.714;2022-11-21T16:08:43;8.80;1.00
24462;DHT22;12631;50.860;5.714;2022-11-21T16:11:15;8.80;1.00
24462;DHT22;12631;50.860;5.714;2022-11-21T16:13:48;8.90;1.00
24462;DHT22;12631;50.860;5.714;2022-11-21T16:16:16;8.90;1.00
24462;DHT22;12631;50.860;5.714;2022-11-21T16:18:44;8.90;1.00
24462;DHT22;12631;50.860;5.714;2022-11-21T16:21:11;8.90;1.00
24462;DHT22;12631;50.860;5.714;2022-11-21T16:23:40;8.90;1.00
24462;DHT22;12631;50.860;5.714;2022-11-21T16:26:08;8.90;1.00
24462;DHT22;12631;50.860;5.714;2022-11-21T16:28:36;8.80;1.00